sensor_id;sensor_type;location;lat;lon;timestamp;temperature;humidity
6291;DHT22;3178;48.730;8.990;2023-02-01T00:01:17;2.70;99.90
6291;DHT22;3178;48.730;8.990;2023-02-01T00:03:42;2.70;99.90
6291;DHT22;3178;48.730;8.990;2023-02-01T00:06:08;2.70;99.90
6291;DHT22;3178;48.730;8.990;2023-02-01T00:08:35;2.70;99.90
6291;DHT22;3178;48.730;8.990;2023-02-01T00:11:05;2.70;99.90
6291;DHT22;3178;48.730;8.990;2023-02-01T00:13:33;2.70;99.90
6291;DHT22;3178;48.730;8.990;2023-02-01T00:16:04;2.70;99.90
6291;DHT22;3178;48.730;8.990;2023-02-01T00:18:29;2.70;99.90
6291;DHT22;3178;48.730;8.990;2023-02-01T00:20:55;2.70;99.90
6291;DHT22;3178;48.730;8.990;2023-02-01T00:23:21;2.70;99.90
6291;DHT22;3178;48.730;8.990;2023-02-01T00:25:46;2.70;99.90
6291;DHT22;3178;48.730;8.990;2023-02-01T00:28:12;2.70;99.90
6291;DHT22;3178;48.730;8.990;2023-02-01T00:30:38;2.70;99.90
6291;DHT22;3178;48.730;8.990;2023-02-01T00:33:03;2.70;99.90
6291;DHT22;3178;48.730;8.990;2023-02-01T00:35:29;2.70;99.90
6291;DHT22;3178;48.730;8.990;2023-02-01T00:37:55;2.70;99.90
6291;DHT22;3178;48.730;8.990;2023-02-01T00:40:20;2.70;99.90
6291;DHT22;3178;48.730;8.990;2023-02-01T00:42:46;2.70;99.90
6291;DHT22;3178;48.730;8.990;2023-02-01T00:45:11;2.70;99.90
6291;DHT22;3178;48.730;8.990;2023-02-01T00:47:37;2.70;99.90
6291;DHT22;3178;48.730;8.990;2023-02-01T00:50:03;2.70;99.90
6291;DHT22;3178;48.730;8.990;2023-02-01T00:52:28;2.70;99.90
6291;DHT22;3178;48.730;8.990;2023-02-01T00:54:54;2.70;99.90
6291;DHT22;3178;48.730;8.990;2023-02-01T00:57:19;2.70;99.90
6291;DHT22;3178;48.730;8.990;2023-02-01T00:59:45;2.70;99.90
6291;DHT22;3178;48.730;8.990;2023-02-01T01:02:10;2.70;99.90
6291;DHT22;3178;48.730;8.990;2023-02-01T01:04:38;2.70;99.90
6291;DHT22;3178;48.730;8.990;2023-02-01T01:07:03;2.70;99.90
6291;DHT22;3178;48.730;8.990;2023-02-01T01:09:29;2.70;99.90
6291;DHT22;3178;48.730;8.990;2023-02-01T01:11:54;2.70;99.90
6291;DHT22;3178;48.730;8.990;2023-02-01T01:14:20;2.70;99.90
6291;DHT22;3178;48.730;8.990;2023-02-01T01:16:45;2.80;99.90
6291;DHT22;3178;48.730;8.990;2023-02-01T01:19:11;2.80;99.90
6291;DHT22;3178;48.730;8.990;2023-02-01T01:21:37;2.80;99.90
6291;DHT22;3178;48.730;8.990;2023-02-01T01:24:02;2.80;99.90
6291;DHT22;3178;48.730;8.990;2023-02-01T01:26:29;2.80;99.90
6291;DHT22;3178;48.730;8.990;2023-02-01T01:28:56;2.80;99.90
6291;DHT22;3178;48.730;8.990;2023-02-01T01:31:22;2.80;99.90
6291;DHT22;3178;48.730;8.990;2023-02-01T01:33:53;2.80;99.90
6291;DHT22;3178;48.730;8.990;2023-02-01T01:36:19;2.80;99.90
6291;DHT22;3178;48.730;8.990;2023-02-01T01:38:45;2.90;99.90
6291;DHT22;3178;48.730;8.990;2023-02-01T01:41:17;2.90;99.90
6291;DHT22;3178;48.730;8.990;2023-02-01T01:44:03;2.90;99.90
6291;DHT22;3178;48.730;8.990;2023-02-01T01:46:39;2.90;99.90
6291;DHT22;3178;48.730;8.990;2023-02-01T01:49:10;2.90;99.90
6291;DHT22;3178;48.730;8.990;2023-02-01T01:51:47;2.90;99.90
6291;DHT22;3178;48.730;8.990;2023-02-01T01:54:18;2.90;99.90
6291;DHT22;3178;48.730;8.990;2023-02-01T01:56:50;2.90;99.90
6291;DHT22;3178;48.730;8.990;2023-02-01T01:59:17;2.80;99.90
6291;DHT22;3178;48.730;8.990;2023-02-01T02:01:43;2.80;99.90
6291;DHT22;3178;48.730;8.990;2023-02-01T02:04:09;2.80;99.90
6291;DHT22;3178;48.730;8.990;2023-02-01T02:06:47;2.80;99.90
6291;DHT22;3178;48.730;8.990;2023-02-01T02:09:15;2.80;99.90
6291;DHT22;3178;48.730;8.990;2023-02-01T02:11:41;2.80;99.90
6291;DHT22;3178;48.730;8.990;2023-02-01T02:14:09;2.80;99.90
6291;DHT22;3178;48.730;8.990;2023-02-01T02:22:59;2.80;99.90
6291;DHT22;3178;48.730;8.990;2023-02-01T02:26:05;2.80;99.90
6291;DHT22;3178;48.730;8.990;2023-02-01T02:42:29;2.80;99.90
6291;DHT22;3178;48.730;8.990;2023-02-01T02:45:49;2.80;99.90
6291;DHT22;3178;48.730;8.990;2023-02-01T02:48:47;2.80;99.90
6291;DHT22;3178;48.730;8.990;2023-02-01T02:51:23;2.80;99.90
6291;DHT22;3178;48.730;8.990;2023-02-01T02:54:11;2.90;99.90
6291;DHT22;3178;48.730;8.990;2023-02-01T02:56:58;2.90;99.90
6291;DHT22;3178;48.730;8.990;2023-02-01T02:59:44;2.90;99.90
6291;DHT22;3178;48.730;8.990;2023-02-01T03:02:30;2.90;99.90
6291;DHT22;3178;48.730;8.990;2023-02-01T03:05:14;2.90;99.90
6291;DHT22;3178;48.730;8.990;2023-02-01T03:19:09;3.00;99.90
6291;DHT22;3178;48.730;8.990;2023-02-01T03:21:49;3.00;99.90
6291;DHT22;3178;48.730;8.990;2023-02-01T03:24:20;3.00;99.90
6291;DHT22;3178;48.730;8.990;2023-02-01T03:26:55;3.00;99.90
6291;DHT22;3178;48.730;8.990;2023-02-01T03:29:29;3.10;99.90
6291;DHT22;3178;48.730;8.990;2023-02-01T03:31:56;3.10;99.90
6291;DHT22;3178;48.730;8.990;2023-02-01T03:34:21;3.00;99.90
6291;DHT22;3178;48.730;8.990;2023-02-01T03:37:10;3.00;99.90
6291;DHT22;3178;48.730;8.990;2023-02-01T03:39:51;3.00;99.90
6291;DHT22;3178;48.730;8.990;2023-02-01T03:42:30;3.00;99.90
6291;DHT22;3178;48.730;8.990;2023-02-01T03:45:05;3.10;99.90
6291;DHT22;3178;48.730;8.990;2023-02-01T03:47:36;3.10;99.90
6291;DHT22;3178;48.730;8.990;2023-02-01T03:50:29;3.10;99.90
6291;DHT22;3178;48.730;8.990;2023-02-01T03:53:07;3.10;99.90
6291;DHT22;3178;48.730;8.990;2023-02-01T03:55:33;3.10;99.90
6291;DHT22;3178;48.730;8.990;2023-02-01T03:58:06;3.10;99.90
6291;DHT22;3178;48.730;8.990;2023-02-01T04:00:33;3.10;99.90
6291;DHT22;3178;48.730;8.990;2023-02-01T04:02:58;3.10;99.90
6291;DHT22;3178;48.730;8.990;2023-02-01T04:05:24;3.10;99.90
6291;DHT22;3178;48.730;8.990;2023-02-01T04:07:50;3.10;99.90
6291;DHT22;3178;48.730;8.990;2023-02-01T04:10:16;3.10;99.90
6291;DHT22;3178;48.730;8.990;2023-02-01T04:12:42;3.10;99.90
6291;DHT22;3178;48.730;8.990;2023-02-01T04:15:08;3.10;99.90
6291;DHT22;3178;48.730;8.990;2023-02-01T04:17:33;3.10;99.90
6291;DHT22;3178;48.730;8.990;2023-02-01T04:19:59;3.10;99.90
6291;DHT22;3178;48.730;8.990;2023-02-01T04:22:25;3.10;99.90
6291;DHT22;3178;48.730;8.990;2023-02-01T04:24:50;3.10;99.90
6291;DHT22;3178;48.730;8.990;2023-02-01T04:27:16;3.10;99.90
6291;DHT22;3178;48.730;8.990;2023-02-01T04:29:42;3.10;99.90
6291;DHT22;3178;48.730;8.990;2023-02-01T04:32:07;3.10;99.90
6291;DHT22;3178;48.730;8.990;2023-02-01T04:34:33;3.20;99.90
6291;DHT22;3178;48.730;8.990;2023-02-01T04:36:58;3.20;99.90
6291;DHT22;3178;48.730;8.990;2023-02-01T04:39:24;3.20;99.90
6291;DHT22;3178;48.730;8.990;2023-02-01T04:41:50;3.20;99.90
6291;DHT22;3178;48.730;8.990;2023-02-01T04:44:17;3.20;99.90
6291;DHT22;3178;48.730;8.990;2023-02-01T04:46:44;3.20;99.90
6291;DHT22;3178;48.730;8.990;2023-02-01T04:49:11;3.20;99.90
6291;DHT22;3178;48.730;8.990;2023-02-01T04:51:37;3.20;99.90
6291;DHT22;3178;48.730;8.990;2023-02-01T04:54:03;3.20;99.90
6291;DHT22;3178;48.730;8.990;2023-02-01T04:56:28;3.30;99.90
6291;DHT22;3178;48.730;8.990;2023-02-01T04:58:54;3.30;99.90
6291;DHT22;3178;48.730;8.990;2023-02-01T05:01:21;3.30;99.90
6291;DHT22;3178;48.730;8.990;2023-02-01T05:03:46;3.20;99.90
6291;DHT22;3178;48.730;8.990;2023-02-01T05:06:12;3.30;99.90
6291;DHT22;3178;48.730;8.990;2023-02-01T05:08:37;3.30;99.90
6291;DHT22;3178;48.730;8.990;2023-02-01T05:11:03;3.30;99.90
6291;DHT22;3178;48.730;8.990;2023-02-01T05:13:29;3.30;99.90
6291;DHT22;3178;48.730;8.990;2023-02-01T05:16:13;3.30;99.90
6291;DHT22;3178;48.730;8.990;2023-02-01T05:18:39;3.30;99.90
6291;DHT22;3178;48.730;8.990;2023-02-01T05:21:05;3.30;99.90
6291;DHT22;3178;48.730;8.990;2023-02-01T05:23:30;3.40;99.90
6291;DHT22;3178;48.730;8.990;2023-02-01T05:25:59;3.40;99.90
6291;DHT22;3178;48.730;8.990;2023-02-01T05:28:26;3.40;99.90
6291;DHT22;3178;48.730;8.990;2023-02-01T05:30:52;3.40;99.90
6291;DHT22;3178;48.730;8.990;2023-02-01T05:33:17;3.50;99.90
6291;DHT22;3178;48.730;8.990;2023-02-01T05:35:43;3.50;99.90
6291;DHT22;3178;48.730;8.990;2023-02-01T05:38:08;3.50;99.90
6291;DHT22;3178;48.730;8.990;2023-02-01T05:40:34;3.50;99.90
6291;DHT22;3178;48.730;8.990;2023-02-01T05:42:59;3.50;99.90
6291;DHT22;3178;48.730;8.990;2023-02-01T05:45:25;3.50;99.90
6291;DHT22;3178;48.730;8.990;2023-02-01T05:47:50;3.50;99.90
6291;DHT22;3178;48.730;8.990;2023-02-01T05:50:16;3.50;99.90
6291;DHT22;3178;48.730;8.990;2023-02-01T05:52:42;3.50;99.90
6291;DHT22;3178;48.730;8.990;2023-02-01T05:55:08;3.50;99.90
6291;DHT22;3178;48.730;8.990;2023-02-01T05:57:33;3.50;99.90
6291;DHT22;3178;48.730;8.990;2023-02-01T05:59:59;3.60;99.90
6291;DHT22;3178;48.730;8.990;2023-02-01T06:02:24;3.60;99.90
6291;DHT22;3178;48.730;8.990;2023-02-01T06:04:51;3.60;99.90
6291;DHT22;3178;48.730;8.990;2023-02-01T06:07:16;3.60;99.90
6291;DHT22;3178;48.730;8.990;2023-02-01T06:09:42;3.60;99.90
6291;DHT22;3178;48.730;8.990;2023-02-01T06:12:07;3.60;99.90
6291;DHT22;3178;48.730;8.990;2023-02-01T06:14:33;3.70;99.90
6291;DHT22;3178;48.730;8.990;2023-02-01T06:16:59;3.70;99.90
6291;DHT22;3178;48.730;8.990;2023-02-01T06:19:25;3.70;99.90
6291;DHT22;3178;48.730;8.990;2023-02-01T06:21:51;3.70;99.90
6291;DHT22;3178;48.730;8.990;2023-02-01T06:24:17;3.70;99.90
6291;DHT22;3178;48.730;8.990;2023-02-01T06:26:43;3.70;99.90
6291;DHT22;3178;48.730;8.990;2023-02-01T06:29:12;3.70;99.90
6291;DHT22;3178;48.730;8.990;2023-02-01T06:31:38;3.70;99.90
6291;DHT22;3178;48.730;8.990;2023-02-01T06:34:03;3.80;99.90
6291;DHT22;3178;48.730;8.990;2023-02-01T06:36:29;3.80;99.90
6291;DHT22;3178;48.730;8.990;2023-02-01T06:38:55;3.80;99.90
6291;DHT22;3178;48.730;8.990;2023-02-01T06:41:25;3.80;99.90
6291;DHT22;3178;48.730;8.990;2023-02-01T06:43:51;3.80;99.90
6291;DHT22;3178;48.730;8.990;2023-02-01T06:46:16;3.90;99.90
6291;DHT22;3178;48.730;8.990;2023-02-01T06:48:42;3.90;99.90
6291;DHT22;3178;48.730;8.990;2023-02-01T06:51:25;3.90;99.90
6291;DHT22;3178;48.730;8.990;2023-02-01T06:53:51;3.90;99.90
6291;DHT22;3178;48.730;8.990;2023-02-01T06:56:17;3.90;99.90
6291;DHT22;3178;48.730;8.990;2023-02-01T06:58:44;4.00;99.90
6291;DHT22;3178;48.730;8.990;2023-02-01T07:01:10;4.00;99.90
6291;DHT22;3178;48.730;8.990;2023-02-01T07:03:37;4.00;99.90
6291;DHT22;3178;48.730;8.990;2023-02-01T07:06:03;4.00;99.90
6291;DHT22;3178;48.730;8.990;2023-02-01T07:08:30;4.00;99.90
6291;DHT22;3178;48.730;8.990;2023-02-01T07:10:56;4.00;99.90
6291;DHT22;3178;48.730;8.990;2023-02-01T07:13:22;4.10;99.90
6291;DHT22;3178;48.730;8.990;2023-02-01T07:15:49;4.10;99.90
6291;DHT22;3178;48.730;8.990;2023-02-01T07:18:15;4.10;99.90
6291;DHT22;3178;48.730;8.990;2023-02-01T07:20:41;4.10;99.90
6291;DHT22;3178;48.730;8.990;2023-02-01T07:23:11;4.10;99.90
6291;DHT22;3178;48.730;8.990;2023-02-01T07:25:36;4.10;99.90
6291;DHT22;3178;48.730;8.990;2023-02-01T07:28:02;4.20;99.90
6291;DHT22;3178;48.730;8.990;2023-02-01T07:30:28;4.20;99.90
6291;DHT22;3178;48.730;8.990;2023-02-01T07:32:53;4.20;99.90
6291;DHT22;3178;48.730;8.990;2023-02-01T07:35:19;4.20;99.90
6291;DHT22;3178;48.730;8.990;2023-02-01T07:37:45;4.20;99.90
6291;DHT22;3178;48.730;8.990;2023-02-01T07:40:11;4.20;99.90
6291;DHT22;3178;48.730;8.990;2023-02-01T07:42:36;4.20;99.90
6291;DHT22;3178;48.730;8.990;2023-02-01T07:45:03;4.20;99.90
6291;DHT22;3178;48.730;8.990;2023-02-01T07:47:28;4.20;99.90
6291;DHT22;3178;48.730;8.990;2023-02-01T07:49:54;4.30;99.90
6291;DHT22;3178;48.730;8.990;2023-02-01T07:52:19;4.30;99.90
6291;DHT22;3178;48.730;8.990;2023-02-01T07:54:45;4.30;99.90
6291;DHT22;3178;48.730;8.990;2023-02-01T07:57:10;4.30;99.90
6291;DHT22;3178;48.730;8.990;2023-02-01T07:59:37;4.30;99.90
6291;DHT22;3178;48.730;8.990;2023-02-01T08:02:22;4.40;99.90
6291;DHT22;3178;48.730;8.990;2023-02-01T08:04:48;4.40;99.90
6291;DHT22;3178;48.730;8.990;2023-02-01T08:07:13;4.40;99.90
6291;DHT22;3178;48.730;8.990;2023-02-01T08:09:39;4.40;99.90
6291;DHT22;3178;48.730;8.990;2023-02-01T08:12:04;4.40;99.90
6291;DHT22;3178;48.730;8.990;2023-02-01T08:14:30;4.40;99.90
6291;DHT22;3178;48.730;8.990;2023-02-01T08:16:55;4.40;99.90
6291;DHT22;3178;48.730;8.990;2023-02-01T08:19:21;4.50;99.90
6291;DHT22;3178;48.730;8.990;2023-02-01T08:21:47;4.50;99.90
6291;DHT22;3178;48.730;8.990;2023-02-01T08:24:14;4.50;99.90
6291;DHT22;3178;48.730;8.990;2023-02-01T08:26:39;4.50;99.90
6291;DHT22;3178;48.730;8.990;2023-02-01T08:29:06;4.60;99.90
6291;DHT22;3178;48.730;8.990;2023-02-01T08:31:34;4.60;99.90
6291;DHT22;3178;48.730;8.990;2023-02-01T08:34:02;4.60;99.90
6291;DHT22;3178;48.730;8.990;2023-02-01T08:36:30;4.60;99.90
6291;DHT22;3178;48.730;8.990;2023-02-01T08:38:56;4.60;99.90
6291;DHT22;3178;48.730;8.990;2023-02-01T08:41:24;4.60;99.90
6291;DHT22;3178;48.730;8.990;2023-02-01T08:43:51;4.70;99.90
6291;DHT22;3178;48.730;8.990;2023-02-01T08:46:17;4.70;99.90
6291;DHT22;3178;48.730;8.990;2023-02-01T08:48:42;4.70;99.90
6291;DHT22;3178;48.730;8.990;2023-02-01T08:51:11;4.80;99.90
6291;DHT22;3178;48.730;8.990;2023-02-01T08:53:37;4.80;99.90
6291;DHT22;3178;48.730;8.990;2023-02-01T08:56:03;4.80;99.90
6291;DHT22;3178;48.730;8.990;2023-02-01T08:58:29;4.80;99.90
6291;DHT22;3178;48.730;8.990;2023-02-01T09:00:54;4.80;99.90
6291;DHT22;3178;48.730;8.990;2023-02-01T09:03:20;4.80;99.90
6291;DHT22;3178;48.730;8.990;2023-02-01T09:05:46;4.80;99.90
6291;DHT22;3178;48.730;8.990;2023-02-01T09:08:13;4.80;99.90
6291;DHT22;3178;48.730;8.990;2023-02-01T09:10:40;4.80;99.90
6291;DHT22;3178;48.730;8.990;2023-02-01T09:13:06;4.80;99.90
6291;DHT22;3178;48.730;8.990;2023-02-01T09:15:33;4.80;99.90
6291;DHT22;3178;48.730;8.990;2023-02-01T09:17:58;4.80;99.90
6291;DHT22;3178;48.730;8.990;2023-02-01T09:20:24;4.80;99.90
6291;DHT22;3178;48.730;8.990;2023-02-01T09:22:51;4.80;99.90
6291;DHT22;3178;48.730;8.990;2023-02-01T09:25:17;4.80;99.90
6291;DHT22;3178;48.730;8.990;2023-02-01T09:27:42;4.80;99.90
6291;DHT22;3178;48.730;8.990;2023-02-01T09:30:09;4.90;99.90
6291;DHT22;3178;48.730;8.990;2023-02-01T09:32:35;4.90;99.90
6291;DHT22;3178;48.730;8.990;2023-02-01T09:35:01;4.90;99.90
6291;DHT22;3178;48.730;8.990;2023-02-01T09:37:27;4.90;99.90
6291;DHT22;3178;48.730;8.990;2023-02-01T09:39:53;4.90;99.90
6291;DHT22;3178;48.730;8.990;2023-02-01T09:47:46;5.00;99.90
6291;DHT22;3178;48.730;8.990;2023-02-01T09:50:16;5.00;99.90
6291;DHT22;3178;48.730;8.990;2023-02-01T09:54:09;5.00;99.90
6291;DHT22;3178;48.730;8.990;2023-02-01T09:56:07;5.10;99.90
6291;DHT22;3178;48.730;8.990;2023-02-01T09:58:37;5.10;99.90
6291;DHT22;3178;48.730;8.990;2023-02-01T10:01:05;5.10;99.90
6291;DHT22;3178;48.730;8.990;2023-02-01T10:03:36;5.20;99.90
6291;DHT22;3178;48.730;8.990;2023-02-01T10:06:16;5.20;99.90
6291;DHT22;3178;48.730;8.990;2023-02-01T10:18:05;5.40;99.90
6291;DHT22;3178;48.730;8.990;2023-02-01T10:26:23;5.40;99.90
6291;DHT22;3178;48.730;8.990;2023-02-01T10:28:55;5.40;99.90
6291;DHT22;3178;48.730;8.990;2023-02-01T10:31:25;5.40;99.90
6291;DHT22;3178;48.730;8.990;2023-02-01T10:34:11;5.40;99.90
6291;DHT22;3178;48.730;8.990;2023-02-01T10:39:48;5.40;99.90
6291;DHT22;3178;48.730;8.990;2023-02-01T10:42:16;5.40;99.90
6291;DHT22;3178;48.730;8.990;2023-02-01T10:44:45;5.40;99.90
6291;DHT22;3178;48.730;8.990;2023-02-01T10:47:14;5.40;99.90
6291;DHT22;3178;48.730;8.990;2023-02-01T10:49:50;5.40;99.90
6291;DHT22;3178;48.730;8.990;2023-02-01T10:52:32;5.40;99.90
6291;DHT22;3178;48.730;8.990;2023-02-01T10:55:36;5.40;99.90
6291;DHT22;3178;48.730;8.990;2023-02-01T10:58:06;5.40;99.90
6291;DHT22;3178;48.730;8.990;2023-02-01T11:00:43;5.40;99.90
6291;DHT22;3178;48.730;8.990;2023-02-01T11:03:42;5.50;99.90
6291;DHT22;3178;48.730;8.990;2023-02-01T11:06:28;5.40;99.90
6291;DHT22;3178;48.730;8.990;2023-02-01T11:08:56;5.50;99.90
6291;DHT22;3178;48.730;8.990;2023-02-01T11:11:23;5.50;99.90
6291;DHT22;3178;48.730;8.990;2023-02-01T11:14:00;5.40;99.90
6291;DHT22;3178;48.730;8.990;2023-02-01T11:16:36;5.40;99.90
6291;DHT22;3178;48.730;8.990;2023-02-01T11:19:02;5.40;99.90
6291;DHT22;3178;48.730;8.990;2023-02-01T11:21:28;5.40;99.90
6291;DHT22;3178;48.730;8.990;2023-02-01T11:23:54;5.40;99.90
6291;DHT22;3178;48.730;8.990;2023-02-01T11:26:23;5.40;99.90
6291;DHT22;3178;48.730;8.990;2023-02-01T11:29:13;5.50;99.90
6291;DHT22;3178;48.730;8.990;2023-02-01T11:31:39;5.50;99.90
6291;DHT22;3178;48.730;8.990;2023-02-01T11:34:24;5.50;99.90
6291;DHT22;3178;48.730;8.990;2023-02-01T11:36:50;5.50;99.90
6291;DHT22;3178;48.730;8.990;2023-02-01T11:39:25;5.60;99.90
6291;DHT22;3178;48.730;8.990;2023-02-01T11:42:17;5.50;99.90
6291;DHT22;3178;48.730;8.990;2023-02-01T11:44:44;5.50;99.90
6291;DHT22;3178;48.730;8.990;2023-02-01T11:47:29;5.50;99.90
6291;DHT22;3178;48.730;8.990;2023-02-01T11:50:02;5.50;99.90
6291;DHT22;3178;48.730;8.990;2023-02-01T11:53:08;5.50;99.90
6291;DHT22;3178;48.730;8.990;2023-02-01T11:55:41;5.50;99.90
6291;DHT22;3178;48.730;8.990;2023-02-01T12:04:10;5.60;99.90
6291;DHT22;3178;48.730;8.990;2023-02-01T12:06:55;5.60;99.90
6291;DHT22;3178;48.730;8.990;2023-02-01T12:18:04;5.60;99.90
6291;DHT22;3178;48.730;8.990;2023-02-01T12:21:05;5.60;99.90
6291;DHT22;3178;48.730;8.990;2023-02-01T12:29:37;5.50;99.90
6291;DHT22;3178;48.730;8.990;2023-02-01T12:32:25;5.50;99.90
6291;DHT22;3178;48.730;8.990;2023-02-01T12:49:02;5.50;99.90
6291;DHT22;3178;48.730;8.990;2023-02-01T12:51:34;5.50;99.90
6291;DHT22;3178;48.730;8.990;2023-02-01T12:56:59;5.50;99.90
6291;DHT22;3178;48.730;8.990;2023-02-01T12:59:56;5.50;99.90
6291;DHT22;3178;48.730;8.990;2023-02-01T13:02:39;5.50;99.90
6291;DHT22;3178;48.730;8.990;2023-02-01T13:05:18;5.50;99.90
6291;DHT22;3178;48.730;8.990;2023-02-01T13:07:50;5.50;99.90
6291;DHT22;3178;48.730;8.990;2023-02-01T13:18:25;5.50;99.90
6291;DHT22;3178;48.730;8.990;2023-02-01T13:21:08;5.50;99.90
6291;DHT22;3178;48.730;8.990;2023-02-01T13:23:38;5.50;99.90
6291;DHT22;3178;48.730;8.990;2023-02-01T13:26:04;5.50;99.90
6291;DHT22;3178;48.730;8.990;2023-02-01T13:28:43;5.40;99.90
6291;DHT22;3178;48.730;8.990;2023-02-01T13:39:45;5.50;99.90
6291;DHT22;3178;48.730;8.990;2023-02-01T13:42:28;5.40;99.90
6291;DHT22;3178;48.730;8.990;2023-02-01T13:45:01;5.40;99.90
6291;DHT22;3178;48.730;8.990;2023-02-01T13:47:28;5.40;99.90
6291;DHT22;3178;48.730;8.990;2023-02-01T13:49:58;5.50;99.90
6291;DHT22;3178;48.730;8.990;2023-02-01T13:52:28;5.50;99.90
6291;DHT22;3178;48.730;8.990;2023-02-01T13:55:15;5.50;99.90
6291;DHT22;3178;48.730;8.990;2023-02-01T13:57:45;5.50;99.90
6291;DHT22;3178;48.730;8.990;2023-02-01T14:00:30;5.50;99.90
6291;DHT22;3178;48.730;8.990;2023-02-01T14:08:11;5.50;99.90
6291;DHT22;3178;48.730;8.990;2023-02-01T14:13:34;5.50;99.90
6291;DHT22;3178;48.730;8.990;2023-02-01T14:23:42;5.40;99.90
6291;DHT22;3178;48.730;8.990;2023-02-01T14:26:11;5.40;99.90
6291;DHT22;3178;48.730;8.990;2023-02-01T14:28:49;5.40;99.90
6291;DHT22;3178;48.730;8.990;2023-02-01T14:31:33;5.40;99.90
6291;DHT22;3178;48.730;8.990;2023-02-01T14:34:02;5.40;99.90
6291;DHT22;3178;48.730;8.990;2023-02-01T14:36:43;5.40;99.90
6291;DHT22;3178;48.730;8.990;2023-02-01T14:39:21;5.40;99.90
6291;DHT22;3178;48.730;8.990;2023-02-01T14:41:54;5.40;99.90
6291;DHT22;3178;48.730;8.990;2023-02-01T14:44:26;5.40;99.90
6291;DHT22;3178;48.730;8.990;2023-02-01T14:49:39;5.40;99.90
6291;DHT22;3178;48.730;8.990;2023-02-01T14:52:13;5.40;99.90
6291;DHT22;3178;48.730;8.990;2023-02-01T14:54:41;5.40;99.90
6291;DHT22;3178;48.730;8.990;2023-02-01T14:57:18;5.40;99.90
6291;DHT22;3178;48.730;8.990;2023-02-01T14:59:45;5.40;99.90
6291;DHT22;3178;48.730;8.990;2023-02-01T15:02:21;5.40;99.90
6291;DHT22;3178;48.730;8.990;2023-02-01T15:04:53;5.40;99.90
6291;DHT22;3178;48.730;8.990;2023-02-01T15:07:19;5.40;99.90
6291;DHT22;3178;48.730;8.990;2023-02-01T15:09:48;5.40;99.90
6291;DHT22;3178;48.730;8.990;2023-02-01T15:12:22;5.40;99.90
6291;DHT22;3178;48.730;8.990;2023-02-01T15:15:13;5.40;99.90
6291;DHT22;3178;48.730;8.990;2023-02-01T15:17:39;5.40;99.90
6291;DHT22;3178;48.730;8.990;2023-02-01T15:20:14;5.40;99.90
6291;DHT22;3178;48.730;8.990;2023-02-01T15:22:41;5.40;99.90
6291;DHT22;3178;48.730;8.990;2023-02-01T15:25:28;5.40;99.90
6291;DHT22;3178;48.730;8.990;2023-02-01T15:27:54;5.40;99.90
6291;DHT22;3178;48.730;8.990;2023-02-01T15:30:24;5.40;99.90
6291;DHT22;3178;48.730;8.990;2023-02-01T15:32:50;5.40;99.90
6291;DHT22;3178;48.730;8.990;2023-02-01T15:35:43;5.40;99.90
6291;DHT22;3178;48.730;8.990;2023-02-01T15:41:20;5.40;99.90
6291;DHT22;3178;48.730;8.990;2023-02-01T15:46:36;5.40;99.90
6291;DHT22;3178;48.730;8.990;2023-02-01T15:49:04;5.40;99.90
6291;DHT22;3178;48.730;8.990;2023-02-01T15:51:31;5.40;99.90
6291;DHT22;3178;48.730;8.990;2023-02-01T15:54:05;5.40;99.90
6291;DHT22;3178;48.730;8.990;2023-02-01T15:56:38;5.40;99.90
6291;DHT22;3178;48.730;8.990;2023-02-01T15:59:13;5.30;99.90
6291;DHT22;3178;48.730;8.990;2023-02-01T16:01:40;5.30;99.90
6291;DHT22;3178;48.730;8.990;2023-02-01T16:04:23;5.30;99.90
6291;DHT22;3178;48.730;8.990;2023-02-01T16:06:52;5.40;99.90
6291;DHT22;3178;48.730;8.990;2023-02-01T16:09:23;5.30;99.90
6291;DHT22;3178;48.730;8.990;2023-02-01T16:11:59;5.30;99.90
6291;DHT22;3178;48.730;8.990;2023-02-01T16:14:25;5.30;99.90
6291;DHT22;3178;48.730;8.990;2023-02-01T16:16:52;5.30;99.90
6291;DHT22;3178;48.730;8.990;2023-02-01T16:19:18;5.30;99.90
6291;DHT22;3178;48.730;8.990;2023-02-01T16:21:44;5.30;99.90
6291;DHT22;3178;48.730;8.990;2023-02-01T16:24:11;5.30;99.90
6291;DHT22;3178;48.730;8.990;2023-02-01T16:26:36;5.30;99.90
6291;DHT22;3178;48.730;8.990;2023-02-01T16:29:03;5.30;99.90
6291;DHT22;3178;48.730;8.990;2023-02-01T16:31:37;5.30;99.90
6291;DHT22;3178;48.730;8.990;2023-02-01T16:34:03;5.30;99.90
6291;DHT22;3178;48.730;8.990;2023-02-01T16:36:30;5.30;99.90
6291;DHT22;3178;48.730;8.990;2023-02-01T16:38:56;5.30;99.90
6291;DHT22;3178;48.730;8.990;2023-02-01T16:41:23;5.20;99.90
6291;DHT22;3178;48.730;8.990;2023-02-01T16:43:50;5.20;99.90
6291;DHT22;3178;48.730;8.990;2023-02-01T16:46:20;5.20;99.90
6291;DHT22;3178;48.730;8.990;2023-02-01T16:48:52;5.20;99.90
6291;DHT22;3178;48.730;8.990;2023-02-01T16:51:19;5.20;99.90
6291;DHT22;3178;48.730;8.990;2023-02-01T16:53:46;5.20;99.90
6291;DHT22;3178;48.730;8.990;2023-02-01T16:56:22;5.20;99.90
6291;DHT22;3178;48.730;8.990;2023-02-01T16:58:48;5.20;99.90
6291;DHT22;3178;48.730;8.990;2023-02-01T17:01:15;5.20;99.90
6291;DHT22;3178;48.730;8.990;2023-02-01T17:03:42;5.20;99.90
6291;DHT22;3178;48.730;8.990;2023-02-01T17:06:10;5.20;99.90
6291;DHT22;3178;48.730;8.990;2023-02-01T17:08:40;5.20;99.90
6291;DHT22;3178;48.730;8.990;2023-02-01T17:11:06;5.20;99.90
6291;DHT22;3178;48.730;8.990;2023-02-01T17:13:33;5.10;99.90
6291;DHT22;3178;48.730;8.990;2023-02-01T17:16:02;5.10;99.90
6291;DHT22;3178;48.730;8.990;2023-02-01T17:18:31;5.10;99.90
6291;DHT22;3178;48.730;8.990;2023-02-01T17:20:58;5.10;99.90
6291;DHT22;3178;48.730;8.990;2023-02-01T17:23:24;5.10;99.90
6291;DHT22;3178;48.730;8.990;2023-02-01T17:25:50;5.10;99.90
6291;DHT22;3178;48.730;8.990;2023-02-01T17:28:16;5.10;99.90
6291;DHT22;3178;48.730;8.990;2023-02-01T17:30:42;5.10;99.90
6291;DHT22;3178;48.730;8.990;2023-02-01T17:35:42;5.10;99.90
6291;DHT22;3178;48.730;8.990;2023-02-01T17:38:11;5.10;99.90
6291;DHT22;3178;48.730;8.990;2023-02-01T17:40:36;5.10;99.90
6291;DHT22;3178;48.730;8.990;2023-02-01T17:43:02;5.10;99.90
6291;DHT22;3178;48.730;8.990;2023-02-01T17:45:37;5.10;99.90
6291;DHT22;3178;48.730;8.990;2023-02-01T17:48:06;5.10;99.90
6291;DHT22;3178;48.730;8.990;2023-02-01T17:50:35;5.10;99.90
6291;DHT22;3178;48.730;8.990;2023-02-01T17:53:02;5.00;99.90
6291;DHT22;3178;48.730;8.990;2023-02-01T17:55:32;5.00;99.90
6291;DHT22;3178;48.730;8.990;2023-02-01T17:57:59;5.00;99.90
6291;DHT22;3178;48.730;8.990;2023-02-01T18:00:24;5.00;99.90
6291;DHT22;3178;48.730;8.990;2023-02-01T18:02:50;4.90;99.90
6291;DHT22;3178;48.730;8.990;2023-02-01T18:05:28;4.90;99.90
6291;DHT22;3178;48.730;8.990;2023-02-01T18:07:56;4.90;99.90
6291;DHT22;3178;48.730;8.990;2023-02-01T18:10:22;4.90;99.90
6291;DHT22;3178;48.730;8.990;2023-02-01T18:12:47;4.90;99.90
6291;DHT22;3178;48.730;8.990;2023-02-01T18:15:19;4.90;99.90
6291;DHT22;3178;48.730;8.990;2023-02-01T18:17:45;4.90;99.90
6291;DHT22;3178;48.730;8.990;2023-02-01T18:20:21;4.90;99.90
6291;DHT22;3178;48.730;8.990;2023-02-01T18:22:47;4.90;99.90
6291;DHT22;3178;48.730;8.990;2023-02-01T18:25:24;4.90;99.90
6291;DHT22;3178;48.730;8.990;2023-02-01T18:27:52;4.90;99.90
6291;DHT22;3178;48.730;8.990;2023-02-01T18:30:22;4.90;99.90
6291;DHT22;3178;48.730;8.990;2023-02-01T18:32:48;4.90;99.90
6291;DHT22;3178;48.730;8.990;2023-02-01T18:37:44;4.90;99.90
6291;DHT22;3178;48.730;8.990;2023-02-01T18:40:19;4.90;99.90
6291;DHT22;3178;48.730;8.990;2023-02-01T18:42:45;4.90;99.90
6291;DHT22;3178;48.730;8.990;2023-02-01T18:47:51;4.90;99.90
6291;DHT22;3178;48.730;8.990;2023-02-01T18:50:17;4.90;99.90
6291;DHT22;3178;48.730;8.990;2023-02-01T18:52:43;4.90;99.90
6291;DHT22;3178;48.730;8.990;2023-02-01T18:55:09;4.90;99.90
6291;DHT22;3178;48.730;8.990;2023-02-01T18:57:35;4.90;99.90